Time;durP1;ratioP1;P1;durP2;ratioP2;P2;SDS_P1;SDS_P2;PMS_P1;PMS_P2;Temp;Humidity;BMP_temperature;BMP_pressure;BME280_temperature;BME280_humidity;BME280_pressure;Samples;Min_cycle;Max_cycle;Signal;HPM_P1;HPM_P2
2023/04/14 00:00:14;;;;;;;4.25;1.60;;;;;;;5.41;100.00;99047.47;12200475;19;20011;-81
2023/04/14 00:04:17;;;;;;;5.57;2.05;;;;;;;5.38;100.00;99052.56;12182205;19;20455;-81
2023/04/14 00:08:19;;;;;;;7.93;1.60;;;;;;;5.33;100.00;99058.75;12203873;19;20376;-81
2023/04/14 00:12:20;;;;;;;5.03;1.50;;;;;;;5.28;100.00;99053.13;12200626;19;20417;-81
2023/04/14 00:16:22;;;;;;;3.28;1.30;;;;;;;5.23;100.00;99048.38;12177704;19;20002;-81
2023/04/14 00:20:24;;;;;;;7.30;1.90;;;;;;;5.17;100.00;99051.19;12201624;19;20007;-81
2023/04/14 00:24:26;;;;;;;5.95;1.80;;;;;;;5.12;100.00;99045.63;12208257;19;20032;-81
2023/04/14 00:28:27;;;;;;;5.45;2.33;;;;;;;5.04;100.00;99044.03;12246140;19;20030;-81
2023/04/14 00:32:29;;;;;;;6.82;2.50;;;;;;;5.01;100.00;99056.25;12272805;19;19999;-80
2023/04/14 00:36:34;;;;;;;7.60;2.60;;;;;;;4.96;100.00;99045.19;12243654;19;20467;-80
2023/04/14 00:40:35;;;;;;;6.15;2.75;;;;;;;4.94;100.00;99052.81;12227384;19;20041;-80
2023/04/14 00:44:37;;;;;;;8.80;2.50;;;;;;;4.91;100.00;99056.00;12203140;19;20067;-81
2023/04/14 00:48:39;;;;;;;8.18;2.97;;;;;;;4.87;100.00;99054.78;12193919;19;20011;-81
2023/04/14 00:52:43;;;;;;;6.20;2.25;;;;;;;4.83;100.00;99048.13;12176958;19;20376;-80
2023/04/14 00:56:52;;;;;;;8.63;2.53;;;;;;;4.78;100.00;99045.25;12190456;19;20016;-80
2023/04/14 01:00:54;;;;;;;5.85;2.08;;;;;;;4.73;100.00;99039.63;12193697;19;20015;-81
2023/04/14 01:04:56;;;;;;;5.00;2.40;;;;;;;4.71;100.00;99039.06;12169548;19;20039;-80
2023/04/14 01:08:59;;;;;;;5.40;2.67;;;;;;;4.67;100.00;99040.56;12193368;19;20006;-80
2023/04/14 01:13:14;;;;;;;7.72;2.30;;;;;;;4.65;100.00;99049.00;12190219;19;20271;-80
2023/04/14 01:17:26;;;;;;;5.70;2.28;;;;;;;4.63;100.00;99044.81;12172385;19;20015;-81
2023/04/14 01:21:36;;;;;;;6.93;1.95;;;;;;;4.57;100.00;99047.41;12191338;19;20003;-80
2023/04/14 01:26:05;;;;;;;7.30;2.13;;;;;;;4.52;100.00;99049.16;12171723;19;20010;-80
2023/04/14 01:30:34;;;;;;;8.10;2.22;;;;;;;4.43;100.00;99050.53;12192764;19;20085;-80
2023/04/14 01:34:52;;;;;;;8.85;2.20;;;;;;;4.38;100.00;99064.03;12169886;19;20062;-80
2023/04/14 01:38:55;;;;;;;5.28;2.50;;;;;;;4.33;100.00;99061.97;12190510;19;20082;-80
2023/04/14 01:43:07;;;;;;;4.57;2.10;;;;;;;4.25;100.00;99065.00;12185911;19;20018;-80
2023/04/14 01:47:12;;;;;;;11.02;2.38;;;;;;;4.16;100.00;99067.19;12170963;19;20018;-81
2023/04/14 01:51:18;;;;;;;5.70;2.42;;;;;;;4.11;100.00;99069.78;12192675;19;20011;-80
2023/04/14 01:55:22;;;;;;;8.85;2.13;;;;;;;4.03;100.00;99067.34;12168657;19;20039;-80
2023/04/14 01:59:26;;;;;;;10.88;3.05;;;;;;;3.99;100.00;99069.69;12189789;19;20085;-80
2023/04/14 02:03:31;;;;;;;9.10;2.47;;;;;;;3.96;100.00;99066.59;12187116;19;19998;-81
2023/04/14 02:07:35;;;;;;;8.57;3.40;;;;;;;3.93;100.00;99073.31;12168825;19;20026;-80
2023/04/14 02:11:39;;;;;;;7.72;2.90;;;;;;;3.89;100.00;99075.63;12186566;19;20007;-80
2023/04/14 02:15:42;;;;;;;7.30;2.80;;;;;;;3.85;100.00;99071.72;12187930;19;20015;-80
2023/04/14 02:19:46;;;;;;;6.82;3.25;;;;;;;3.79;100.00;99071.78;12165707;19;20388;-80
2023/04/14 02:23:48;;;;;;;8.95;3.55;;;;;;;3.75;100.00;99081.44;12189520;19;20013;-80
2023/04/14 02:27:55;;;;;;;6.95;3.33;;;;;;;3.70;100.00;99078.56;12187928;19;20006;-80
2023/04/14 02:32:02;;;;;;;8.18;4.30;;;;;;;3.66;100.00;99089.09;12170621;19;20013;-81
2023/04/14 02:36:15;;;;;;;8.00;3.60;;;;;;;3.61;100.00;99083.47;12185637;19;20475;-81
2023/04/14 02:40:24;;;;;;;9.50;4.07;;;;;;;3.55;100.00;99079.75;12165904;19;20114;-81
2023/04/14 02:44:31;;;;;;;9.10;4.57;;;;;;;3.50;100.00;99098.63;12192730;19;20006;-80
2023/04/14 02:48:34;;;;;;;12.95;5.25;;;;;;;3.46;100.00;99099.31;12197124;19;20010;-81
2023/04/14 02:52:39;;;;;;;10.70;5.65;;;;;;;3.42;100.00;99109.78;12180337;19;20050;-80
2023/04/14 02:56:42;;;;;;;17.58;6.00;;;;;;;3.31;100.00;99110.53;12201696;19;21388;-80
2023/04/14 03:00:45;;;;;;;13.25;5.35;;;;;;;3.24;100.00;99118.69;12196703;19;20035;-80
2023/04/14 03:04:50;;;;;;;10.82;4.82;;;;;;;3.18;100.00;99125.03;12181228;19;20038;-81
2023/04/14 03:09:03;;;;;;;12.20;5.45;;;;;;;3.13;100.00;99122.97;12199160;19;20060;-81
2023/04/14 03:13:06;;;;;;;11.98;5.40;;;;;;;3.11;100.00;99121.53;12196998;19;20453;-80
2023/04/14 03:17:10;;;;;;;13.82;6.38;;;;;;;3.12;100.00;99110.44;12176607;19;20873;-80
2023/04/14 03:21:15;;;;;;;;;;;;;;;3.11;100.00;99113.34;12198005;19;20334;-81
2023/04/14 03:25:17;;;;;;;15.68;7.15;;;;;;;3.12;100.00;99110.44;12172995;19;19910;-80
2023/04/14 03:29:28;;;;;;;18.48;7.72;;;;;;;3.11;100.00;99107.91;12198847;19;20014;-81
2023/04/14 03:33:31;;;;;;;19.15;7.72;;;;;;;3.08;100.00;99109.19;12196301;19;20014;-80
2023/04/14 03:37:38;;;;;;;19.83;8.60;;;;;;;3.07;100.00;99112.97;12176331;19;20464;-80
2023/04/14 03:41:46;;;;;;;16.58;7.63;;;;;;;3.05;100.00;99108.78;12195788;19;20010;-80
2023/04/14 03:45:50;;;;;;;18.70;10.20;;;;;;;3.04;100.00;99109.84;12193239;19;20010;-80
2023/04/14 03:49:56;;;;;;;18.40;9.45;;;;;;;3.03;100.00;99119.88;12177845;19;20677;-80
2023/04/14 03:54:01;;;;;;;17.08;8.98;;;;;;;3.01;100.00;99113.84;12193633;19;20030;-80
2023/04/14 03:58:05;;;;;;;20.63;9.32;;;;;;;2.97;100.00;99110.72;12194388;19;20075;-80
2023/04/14 04:02:09;;;;;;;19.83;10.40;;;;;;;2.96;100.00;99110.94;12188790;19;20014;-79
2023/04/14 04:06:11;;;;;;;23.38;10.60;;;;;;;2.94;100.00;99113.03;12244909;19;20010;-81
2023/04/14 04:10:15;;;;;;;21.00;10.35;;;;;;;2.93;100.00;99112.19;12180925;19;20007;-80
2023/04/14 04:14:20;;;;;;;20.85;10.55;;;;;;;2.93;100.00;99128.53;12200797;19;20332;-81
2023/04/14 04:18:25;;;;;;;19.75;11.02;;;;;;;2.92;100.00;99129.59;12198532;19;20011;-81
2023/04/14 04:22:29;;;;;;;20.30;10.45;;;;;;;2.91;100.00;99124.34;12178650;19;20025;-81
2023/04/14 04:26:31;;;;;;;22.58;10.77;;;;;;;2.91;100.00;99135.22;12197983;19;20010;-81
2023/04/14 04:30:40;;;;;;;22.15;10.15;;;;;;;2.90;100.00;99133.56;12230828;19;20009;-81
2023/04/14 04:34:42;;;;;;;19.67;10.35;;;;;;;2.91;100.00;99136.06;12237197;19;20006;-83
2023/04/14 04:38:48;;;;;;;21.27;10.45;;;;;;;2.92;100.00;99134.19;12213253;19;20010;-83
2023/04/14 04:42:50;;;;;;;22.25;9.75;;;;;;;2.92;100.00;99139.63;12232041;19;20014;-83
2023/04/14 04:46:54;;;;;;;21.83;10.20;;;;;;;2.94;100.00;99142.97;12208177;19;20015;-83
2023/04/14 04:50:59;;;;;;;27.25;10.43;;;;;;;2.95;100.00;99142.75;12214599;19;20024;-83
2023/04/14 04:55:01;;;;;;;25.00;10.60;;;;;;;2.99;100.00;99147.75;12213305;19;20440;-83
2023/04/14 04:59:03;;;;;;;25.05;10.95;;;;;;;3.03;100.00;99147.09;12186507;19;20014;-83
2023/04/14 05:03:05;;;;;;;22.33;10.52;;;;;;;3.06;100.00;99140.38;12219019;19;20617;-82
2023/04/14 05:07:08;;;;;;;24.50;10.50;;;;;;;3.09;100.00;99140.78;12191316;19;20472;-82
2023/04/14 05:11:10;;;;;;;22.35;9.55;;;;;;;3.15;100.00;99148.09;12214548;19;20006;-82
2023/04/14 05:15:12;;;;;;;23.70;11.00;;;;;;;3.19;100.00;99141.16;12213412;19;20009;-82
2023/04/14 05:19:14;;;;;;;25.77;10.18;;;;;;;3.22;100.00;99150.78;12188767;19;20381;-81
2023/04/14 05:23:16;;;;;;;18.73;9.20;;;;;;;3.27;100.00;99153.69;12212488;19;20015;-82
2023/04/14 05:27:17;;;;;;;19.80;8.50;;;;;;;3.32;100.00;99150.28;12212169;19;20010;-82
2023/04/14 05:31:21;;;;;;;20.00;7.55;;;;;;;3.36;100.00;99156.97;12202876;19;20007;-82
2023/04/14 05:35:24;;;;;;;15.77;7.22;;;;;;;3.38;100.00;99152.16;12219642;19;20017;-82
2023/04/14 05:39:26;;;;;;;15.38;6.53;;;;;;;3.41;100.00;99152.53;12223110;19;20047;-82
2023/04/14 05:43:27;;;;;;;14.32;6.45;;;;;;;3.42;100.00;99162.41;12200501;19;20035;-83
2023/04/14 05:47:29;;;;;;;18.38;7.00;;;;;;;3.48;100.00;99155.25;12208914;19;20006;-82
2023/04/14 05:51:33;;;;;;;16.38;7.15;;;;;;;3.52;100.00;99161.06;12203886;19;20074;-82
2023/04/14 05:55:35;;;;;;;18.63;7.47;;;;;;;3.54;100.00;99164.38;12184054;19;20459;-82
2023/04/14 05:59:36;;;;;;;16.77;6.78;;;;;;;3.59;100.00;99173.56;12202228;19;20002;-82
2023/04/14 06:03:38;;;;;;;16.17;6.85;;;;;;;3.68;100.00;99179.59;12200724;19;20014;-82
2023/04/14 06:07:41;;;;;;;14.82;6.97;;;;;;;3.78;100.00;99173.69;12181670;19;20479;-83
2023/04/14 06:11:45;;;;;;;11.75;5.57;;;;;;;3.95;100.00;99169.31;12202826;19;20013;-83
2023/04/14 06:15:49;;;;;;;11.10;6.82;;;;;;;4.11;100.00;99174.22;12211399;19;20003;-83
2023/04/14 06:19:55;;;;;;;12.77;6.18;;;;;;;4.29;100.00;99178.06;12207921;19;19999;-82
2023/04/14 06:23:56;;;;;;;9.80;5.13;;;;;;;4.47;100.00;99178.06;12228906;19;20031;-82
2023/04/14 06:28:02;;;;;;;16.13;6.88;;;;;;;4.62;100.00;99168.69;12234814;19;20014;-82
2023/04/14 06:32:04;;;;;;;18.13;7.25;;;;;;;4.82;100.00;99165.72;12220588;19;20475;-83
2023/04/14 06:36:09;;;;;;;15.10;7.38;;;;;;;5.11;100.00;99166.84;12294281;19;19999;-82
2023/04/14 06:40:11;;;;;;;;;;;;;;;5.24;100.00;99169.41;12270253;19;20027;-82
2023/04/14 06:44:13;;;;;;;14.15;7.20;;;;;;;5.30;100.00;99167.66;12253100;19;19917;-81
2023/04/14 06:48:15;;;;;;;13.55;7.07;;;;;;;5.38;100.00;99172.75;12228228;19;20077;-82
2023/04/14 06:52:17;;;;;;;14.65;7.13;;;;;;;5.50;100.00;99176.38;12207376;19;20456;-82
2023/04/14 06:56:20;;;;;;;;;;;;;;;5.56;100.00;99185.53;12226472;19;20007;-82
2023/04/14 07:00:22;;;;;;;14.60;6.68;;;;;;;5.73;100.00;99178.34;12226108;19;19917;-81
2023/04/14 07:04:24;;;;;;;12.40;6.25;;;;;;;5.88;100.00;99172.44;12202440;19;20006;-81
2023/04/14 07:08:30;;;;;;;19.80;7.25;;;;;;;5.99;100.00;99184.50;12216191;19;20018;-80
2023/04/14 07:12:32;;;;;;;10.68;5.57;;;;;;;6.20;100.00;99181.19;12216193;19;20013;-81
2023/04/14 07:16:34;;;;;;;11.80;4.68;;;;;;;6.36;100.00;99177.75;12190700;19;20018;-82
2023/04/14 07:20:37;;;;;;;15.65;5.10;;;;;;;6.55;100.00;99180.38;12223144;19;20480;-81
2023/04/14 07:24:42;;;;;;;12.63;5.18;;;;;;;6.66;100.00;99175.94;12234680;19;20009;-81
2023/04/14 07:28:44;;;;;;;10.00;5.72;;;;;;;6.85;100.00;99175.56;12236017;19;20007;-82
2023/04/14 07:32:46;;;;;;;12.85;4.40;;;;;;;6.95;100.00;99183.16;12219275;19;20006;-82
2023/04/14 07:36:50;;;;;;;12.10;4.75;;;;;;;7.21;100.00;99176.31;12216976;19;21313;-82
2023/04/14 07:40:53;;;;;;;12.50;5.20;;;;;;;7.45;100.00;99173.47;12193939;19;20007;-81
2023/04/14 07:44:55;;;;;;;9.87;4.07;;;;;;;7.63;100.00;99167.78;12211714;19;20520;-81
2023/04/14 07:48:58;;;;;;;8.13;4.15;;;;;;;7.71;100.00;99170.13;12210350;19;20348;-81
2023/04/14 07:53:00;;;;;;;13.05;4.05;;;;;;;7.93;100.00;99162.00;12196271;19;20118;-82
2023/04/14 07:57:03;;;;;;;7.80;3.58;;;;;;;8.07;100.00;99158.94;12215375;19;20006;-82
2023/04/14 08:01:05;;;;;;;5.75;3.10;;;;;;;8.28;100.00;99151.88;12211147;19;20010;-82
2023/04/14 08:05:07;;;;;;;14.20;4.40;;;;;;;8.41;100.00;99151.53;12186716;19;20098;-81
2023/04/14 08:09:11;;;;;;;8.68;3.20;;;;;;;8.46;100.00;99159.84;12201124;19;20772;-82
2023/04/14 08:13:13;;;;;;;7.80;2.72;;;;;;;8.71;100.00;99161.31;12186669;19;20026;-81
2023/04/14 08:17:15;;;;;;;8.27;2.90;;;;;;;8.97;100.00;99149.56;12213108;19;20026;-81
2023/04/14 08:21:17;;;;;;;12.52;3.78;;;;;;;9.23;100.00;99158.97;12212544;19;19999;-81
2023/04/14 08:25:20;;;;;;;8.00;2.83;;;;;;;9.42;100.00;99148.44;12185833;19;20015;-81
2023/04/14 08:29:22;;;;;;;8.77;2.83;;;;;;;9.58;100.00;99154.94;12209361;19;21560;-82
2023/04/14 08:33:24;;;;;;;5.18;2.55;;;;;;;9.84;100.00;99150.50;12205332;19;20078;-81
2023/04/14 08:37:26;;;;;;;11.55;2.88;;;;;;;9.94;100.00;99147.84;12189156;19;20024;-80
2023/04/14 08:41:33;;;;;;;10.48;2.97;;;;;;;10.08;100.00;99150.16;12212717;19;20034;-81
2023/04/14 08:45:39;;;;;;;6.03;2.55;;;;;;;10.23;97.99;99144.78;12222090;19;20002;-81
2023/04/14 08:49:50;;;;;;;8.32;2.72;;;;;;;10.43;99.99;99149.63;12197603;19;20003;-83
2023/04/14 08:53:57;;;;;;;8.68;2.78;;;;;;;10.45;94.89;99150.22;12212503;19;20002;-83
2023/04/14 08:58:02;;;;;;;9.13;3.53;;;;;;;10.38;94.42;99147.69;12211317;19;21260;-81
2023/04/14 09:02:05;;;;;;;7.07;2.63;;;;;;;10.59;96.17;99140.38;12188681;19;20058;-81
2023/04/14 09:06:07;;;;;;;;;;;;;;;10.79;93.44;99136.91;12209425;19;20460;-81
2023/04/14 09:10:11;;;;;;;6.75;2.67;;;;;;;10.91;92.42;99122.91;12190495;19;19919;-82
2023/04/14 09:14:14;;;;;;;7.22;2.50;;;;;;;11.08;93.22;99133.72;12230291;19;20302;-81
2023/04/14 09:18:20;;;;;;;7.57;2.70;;;;;;;11.37;92.17;99129.41;12261854;19;20006;-82
2023/04/14 09:22:26;;;;;;;8.80;2.75;;;;;;;11.73;90.62;99123.97;12201454;19;20040;-83
2023/04/14 09:26:28;;;;;;;6.15;2.47;;;;;;;11.93;88.21;99116.81;12202222;19;20030;-82
2023/04/14 09:30:30;;;;;;;6.55;2.55;;;;;;;12.06;85.13;99117.09;12201978;19;20006;-81
2023/04/14 09:34:32;;;;;;;9.82;2.58;;;;;;;12.02;83.66;99121.53;12178720;19;20024;-80
2023/04/14 09:38:37;;;;;;;10.45;5.30;;;;;;;12.05;85.58;99109.13;12202715;19;20019;-84
2023/04/14 09:42:41;;;;;;;8.98;3.03;;;;;;;12.37;85.31;99110.72;12200295;19;20006;-80
2023/04/14 09:47:06;;;;;;;7.13;2.33;;;;;;;12.47;81.63;99108.78;12176207;19;20380;-80
2023/04/14 09:51:12;;;;;;;7.78;2.97;;;;;;;12.53;80.64;99102.13;12198136;19;20082;-80
2023/04/14 09:55:15;;;;;;;8.23;2.45;;;;;;;12.65;81.34;99101.81;12176937;19;20122;-80
2023/04/14 09:59:36;;;;;;;8.68;3.63;;;;;;;13.00;82.44;99086.22;12199117;19;20362;-80
2023/04/14 10:03:45;;;;;;;12.00;2.50;;;;;;;13.40;79.35;99089.91;12201695;19;20006;-80
2023/04/14 10:08:04;;;;;;;5.85;2.20;;;;;;;13.69;75.70;99090.00;12184272;19;20027;-80
2023/04/14 10:12:13;;;;;;;8.95;2.60;;;;;;;14.03;75.27;99087.22;12198112;19;20007;-78
2023/04/14 10:16:16;;;;;;;5.72;2.25;;;;;;;14.49;73.99;99086.78;12177879;19;20010;-80
2023/04/14 10:20:18;;;;;;;5.93;2.60;;;;;;;14.61;70.96;99088.38;12201206;19;20006;-80
2023/04/14 10:24:20;;;;;;;6.47;2.30;;;;;;;14.57;70.29;99080.66;12202215;19;20002;-79
2023/04/14 10:28:24;;;;;;;12.23;2.33;;;;;;;14.30;67.94;99080.31;12176096;19;20017;-78
2023/04/14 10:32:31;;;;;;;8.07;1.98;;;;;;;14.59;67.72;99074.78;12200156;19;20480;-82
2023/04/14 10:36:35;;;;;;;9.88;2.10;;;;;;;15.01;64.21;99060.13;12202765;19;20003;-79
2023/04/14 10:40:50;;;;;;;6.07;1.80;;;;;;;15.37;60.37;99067.97;12178584;19;20010;-80
2023/04/14 10:45:02;;;;;;;11.63;2.38;;;;;;;15.63;59.21;99068.41;12203275;19;20010;-80
2023/04/14 10:49:07;;;;;;;8.15;2.30;;;;;;;16.14;58.61;99067.59;12206091;19;20010;-83
2023/04/14 10:53:09;;;;;;;7.38;1.95;;;;;;;16.53;57.51;99068.28;12181299;19;21429;-80
2023/04/14 10:57:11;;;;;;;9.70;1.88;;;;;;;16.77;48.27;99063.38;12200269;19;20038;-79
2023/04/14 11:01:30;;;;;;;7.85;1.95;;;;;;;16.30;53.42;99053.41;12187249;19;20007;-80
2023/04/14 11:05:34;;;;;;;9.73;2.20;;;;;;;16.45;54.66;99043.97;12232576;19;20014;-81
2023/04/14 11:09:36;;;;;;;7.57;2.13;;;;;;;16.33;54.25;99042.53;12217688;19;20074;-82
2023/04/14 11:13:38;;;;;;;6.35;2.20;;;;;;;15.80;52.74;99034.56;12201415;19;20007;-81
2023/04/14 11:17:42;;;;;;;6.90;1.80;;;;;;;15.61;54.91;99025.41;12218367;19;20019;-81
2023/04/14 11:21:48;;;;;;;5.18;2.35;;;;;;;15.39;53.04;99020.47;12217444;19;20035;-81
2023/04/14 11:25:50;;;;;;;6.72;1.98;;;;;;;14.67;55.59;99017.88;12193637;19;20368;-80
2023/04/14 11:29:53;;;;;;;5.13;1.65;;;;;;;14.22;56.38;99023.63;12212319;19;20093;-81
2023/04/14 11:33:55;;;;;;;5.72;2.03;;;;;;;13.85;58.98;99007.63;12217203;19;20027;-82
2023/04/14 11:37:59;;;;;;;6.50;1.70;;;;;;;13.58;60.68;99006.19;12194049;19;20086;-81
2023/04/14 11:42:01;;;;;;;7.28;2.95;;;;;;;13.71;60.79;98996.38;12221794;19;20111;-81
2023/04/14 11:46:04;;;;;;;7.03;1.75;;;;;;;13.70;61.99;98993.91;12216103;19;20010;-80
2023/04/14 11:50:09;;;;;;;7.18;2.08;;;;;;;13.67;61.15;98990.59;12198761;19;20034;-82
2023/04/14 11:54:11;;;;;;;;;;;;;;;13.81;62.61;98979.69;12221491;19;20452;-81
2023/04/14 11:58:23;;;;;;;6.90;1.70;;;;;;;13.88;60.52;98987.66;12239383;19;19923;-83
2023/04/14 12:02:25;;;;;;;4.72;2.03;;;;;;;13.97;60.56;98972.06;12271321;19;20023;-81
2023/04/14 12:06:34;;;;;;;10.63;2.65;;;;;;;14.15;59.60;98964.94;12230807;19;20007;-81
2023/04/14 12:10:37;;;;;;;4.10;1.60;;;;;;;14.85;59.84;98958.84;12189319;19;20349;-80
2023/04/14 12:14:41;;;;;;;6.53;2.08;;;;;;;15.25;59.35;98956.56;12204757;19;20113;-81
2023/04/14 12:18:43;;;;;;;8.27;2.35;;;;;;;16.08;56.42;98962.41;12211389;19;20027;-81
2023/04/14 12:22:48;;;;;;;5.53;1.85;;;;;;;17.90;50.56;98955.81;12184602;19;20962;-81
2023/04/14 12:26:50;;;;;;;6.45;2.00;;;;;;;19.19;44.97;98944.59;12205700;19;20393;-80
2023/04/14 12:31:02;;;;;;;6.25;1.88;;;;;;;20.32;39.20;98947.22;12200707;19;20011;-81
2023/04/14 12:35:05;;;;;;;7.88;2.25;;;;;;;20.25;39.93;98944.91;12184165;19;20033;-79
2023/04/14 12:39:08;;;;;;;5.85;1.60;;;;;;;19.63;41.47;98937.00;12202561;19;20010;-82
2023/04/14 12:43:14;;;;;;;8.23;1.85;;;;;;;19.97;40.51;98933.34;12184089;19;20342;-81
2023/04/14 12:47:34;;;;;;;7.60;2.00;;;;;;;19.29;40.38;98928.31;12209653;19;20006;-82
2023/04/14 12:51:38;;;;;;;6.53;1.70;;;;;;;18.86;43.25;98933.91;12207224;19;20006;-82
2023/04/14 12:55:41;;;;;;;6.05;1.40;;;;;;;19.74;37.97;98918.75;12183450;19;20035;-81
2023/04/14 12:59:44;;;;;;;5.10;1.13;;;;;;;19.95;38.05;98913.28;12207421;19;20099;-82
2023/04/14 13:03:49;;;;;;;6.43;1.40;;;;;;;21.35;34.42;98914.91;12206097;19;20023;-81
2023/04/14 13:07:51;;;;;;;6.35;1.52;;;;;;;22.52;32.44;98914.66;12184317;19;20022;-80
2023/04/14 13:11:53;;;;;;;6.43;1.60;;;;;;;22.75;31.09;98888.88;12210920;19;20018;-81
2023/04/14 13:15:56;;;;;;;7.78;1.63;;;;;;;22.24;31.78;98894.88;12202084;19;20377;-80
2023/04/14 13:20:16;;;;;;;4.88;1.27;;;;;;;22.02;31.33;98881.28;12186230;19;20002;-80
2023/04/14 13:24:20;;;;;;;4.88;1.23;;;;;;;23.19;29.84;98867.38;12199770;19;20027;-80
2023/04/14 13:28:22;;;;;;;3.72;1.27;;;;;;;22.38;30.68;98862.84;12184799;19;20027;-80
2023/04/14 13:32:24;;;;;;;;;;;;;;;21.94;31.10;98865.34;12198580;19;20026;-81
2023/04/14 13:36:26;;;;;;;5.68;1.55;;;;;;;23.05;29.32;98861.31;12200152;19;19915;-82
2023/04/14 13:40:28;;;;;;;2.92;1.25;;;;;;;24.14;27.99;98858.31;12184397;19;20022;-82
2023/04/14 13:44:31;;;;;;;4.32;1.10;;;;;;;25.06;25.38;98863.69;12204535;19;20010;-82
2023/04/14 13:48:33;;;;;;;3.85;1.33;;;;;;;25.13;25.61;98853.41;12203731;19;20009;-82
2023/04/14 13:52:34;;;;;;;4.75;1.58;;;;;;;26.05;25.98;98841.47;12187971;19;20006;-81
2023/04/14 13:56:37;;;;;;;5.45;1.25;;;;;;;26.30;24.35;98830.63;12206282;19;20061;-81
2023/04/14 14:00:40;;;;;;;6.30;1.10;;;;;;;24.82;24.40;98825.34;12205985;19;20038;-81
2023/04/14 14:04:43;;;;;;;8.27;1.50;;;;;;;23.04;26.93;98820.38;12190811;19;20451;-81
2023/04/14 14:08:45;;;;;;;6.38;1.20;;;;;;;21.82;26.29;98824.09;12250850;19;20104;-81
2023/04/14 14:12:47;;;;;;;2.80;1.15;;;;;;;20.89;27.77;98821.56;12245846;19;20011;-81
2023/04/14 14:16:49;;;;;;;6.95;1.50;;;;;;;20.15;27.87;98817.44;12195967;19;20002;-80
2023/04/14 14:20:52;;;;;;;2.80;0.95;;;;;;;19.67;29.95;98804.69;12233580;19;20041;-80
2023/04/14 14:24:54;;;;;;;5.88;1.40;;;;;;;19.39;28.59;98804.25;12245279;19;20015;-81
2023/04/14 14:29:15;;;;;;;6.53;1.35;;;;;;;19.25;29.39;98792.47;12228148;19;19999;-80
2023/04/14 14:33:17;;;;;;;4.13;1.10;;;;;;;19.64;28.89;98793.34;12248114;19;20003;-80
2023/04/14 14:37:20;;;;;;;5.60;1.60;;;;;;;20.40;28.24;98790.47;12231208;19;20027;-81
2023/04/14 14:41:22;;;;;;;;;;;;;;;20.82;27.71;98792.47;12263696;19;20009;-80
2023/04/14 14:45:23;;;;;;;6.00;1.40;;;;;;;20.77;27.79;98795.50;12262633;19;19918;-80
2023/04/14 14:49:32;;;;;;;4.43;1.10;;;;;;;20.84;28.22;98788.16;12241108;19;20626;-79
2023/04/14 14:53:34;;;;;;;6.10;1.40;;;;;;;20.88;27.00;98793.91;12229617;19;20003;-80
2023/04/14 14:57:35;;;;;;;9.30;1.48;;;;;;;20.24;28.13;98790.25;12221505;19;20007;-79
2023/04/14 15:01:37;;;;;;;2.93;0.97;;;;;;;20.27;28.94;98783.16;12195242;19;20021;-79
2023/04/14 15:05:39;;;;;;;4.83;1.80;;;;;;;20.07;28.20;98786.72;12217199;19;20046;-80
2023/04/14 15:09:42;;;;;;;5.03;0.93;;;;;;;19.33;28.20;98789.66;12219063;19;20127;-82
2023/04/14 15:13:43;;;;;;;5.00;1.40;;;;;;;18.89;28.80;98785.31;12203139;19;20014;-81
2023/04/14 15:17:45;;;;;;;4.07;1.37;;;;;;;18.42;30.05;98787.91;12223951;19;20019;-81
2023/04/14 15:21:47;;;;;;;3.73;1.20;;;;;;;18.23;29.21;98793.75;12218896;19;20011;-80
2023/04/14 15:25:49;;;;;;;2.53;0.98;;;;;;;18.06;29.89;98786.19;12200322;19;20011;-80
2023/04/14 15:29:50;;;;;;;4.60;0.97;;;;;;;17.75;30.38;98789.00;12215065;19;20007;-80
2023/04/14 15:33:53;;;;;;;4.63;1.05;;;;;;;17.49;30.50;98788.88;12208992;19;20014;-80
2023/04/14 15:37:55;;;;;;;4.78;1.27;;;;;;;17.33;31.09;98790.47;12194608;19;20007;-79
2023/04/14 15:41:57;;;;;;;4.50;1.38;;;;;;;17.27;31.81;98790.59;12212489;19;20118;-79
2023/04/14 15:45:59;;;;;;;4.93;0.90;;;;;;;17.16;31.45;98789.22;12215156;19;20050;-80
2023/04/14 15:50:01;;;;;;;3.50;1.13;;;;;;;17.57;31.27;98790.91;12191733;19;21440;-81
2023/04/14 15:54:10;;;;;;;6.32;1.10;;;;;;;17.91;30.31;98781.91;12214600;19;20098;-80
2023/04/14 15:58:12;;;;;;;8.35;1.23;;;;;;;18.04;30.82;98782.09;12195205;19;20373;-81
2023/04/14 16:02:13;;;;;;;3.83;1.00;;;;;;;18.45;28.82;98773.28;12212835;19;20670;-80
2023/04/14 16:06:16;;;;;;;2.88;0.77;;;;;;;19.03;28.80;98782.31;12210076;19;20020;-80
2023/04/14 16:10:20;;;;;;;6.35;1.33;;;;;;;20.13;28.04;98785.38;12190766;19;20022;-80
2023/04/14 16:14:21;;;;;;;4.60;1.00;;;;;;;20.43;27.50;98775.78;12216902;19;20013;-81
2023/04/14 16:18:24;;;;;;;3.38;1.23;;;;;;;20.42;26.04;98779.75;12216148;19;20014;-80
2023/04/14 16:22:28;;;;;;;4.55;1.48;;;;;;;20.01;27.72;98791.69;12196112;19;20083;-80
2023/04/14 16:26:29;;;;;;;4.53;1.08;;;;;;;20.45;26.10;98786.66;12221732;19;20002;-80
2023/04/14 16:30:31;;;;;;;5.60;1.20;;;;;;;20.96;26.75;98779.00;12220774;19;20014;-79
2023/04/14 16:34:33;;;;;;;3.70;1.77;;;;;;;20.96;26.46;98775.38;12188399;19;20100;-80
2023/04/14 16:38:36;;;;;;;6.60;1.67;;;;;;;21.15;26.03;98782.13;12222077;19;20007;-80
2023/04/14 16:42:37;;;;;;;3.30;1.00;;;;;;;21.07;25.42;98782.19;12212070;19;20010;-81
2023/04/14 16:46:40;;;;;;;4.90;1.05;;;;;;;20.54;25.63;98789.41;12192866;19;20010;-83
2023/04/14 16:50:45;;;;;;;3.17;1.20;;;;;;;20.38;25.70;98787.19;12207230;19;20554;-82
2023/04/14 16:54:51;;;;;;;4.97;1.10;;;;;;;19.66;26.25;98788.25;12220222;19;20006;-80
2023/04/14 16:58:54;;;;;;;4.60;1.00;;;;;;;19.33;26.22;98791.59;12219786;19;20014;-81
2023/04/14 17:02:56;;;;;;;6.53;1.13;;;;;;;18.81;27.25;98789.72;12269139;19;20006;-80
2023/04/14 17:07:00;;;;;;;3.67;1.08;;;;;;;18.83;27.05;98786.63;12269715;19;20002;-80
2023/04/14 17:11:02;;;;;;;5.72;0.70;;;;;;;18.54;27.00;98788.06;12245676;19;20031;-79
2023/04/14 17:15:05;;;;;;;3.63;0.75;;;;;;;18.64;26.94;98786.91;12264688;19;20015;-80
2023/04/14 17:19:07;;;;;;;3.63;0.82;;;;;;;18.47;27.15;98781.31;12231974;19;20011;-80
2023/04/14 17:23:08;;;;;;;5.57;1.00;;;;;;;18.04;27.85;98788.47;12220058;19;20158;-81
2023/04/14 17:27:11;;;;;;;2.43;0.87;;;;;;;17.41;28.45;98792.47;12217356;19;20038;-80
2023/04/14 17:31:15;;;;;;;4.15;1.00;;;;;;;17.01;28.90;98792.38;12195445;19;20034;-80
2023/04/14 17:35:17;;;;;;;3.75;1.00;;;;;;;16.57;29.53;98792.06;12220005;19;20010;-83
2023/04/14 17:39:25;;;;;;;3.33;1.05;;;;;;;16.12;30.40;98797.53;12224542;19;20010;-80
2023/04/14 17:43:27;;;;;;;1.98;0.75;;;;;;;16.10;31.05;98793.41;12254340;19;19991;-81
2023/04/14 17:47:30;;;;;;;3.73;1.67;;;;;;;16.04;31.34;98798.25;12273464;19;19991;-80
2023/04/14 17:51:33;;;;;;;4.18;1.15;;;;;;;15.76;31.27;98802.16;12237908;19;20247;-82
2023/04/14 17:55:36;;;;;;;3.38;0.75;;;;;;;15.40;31.16;98806.41;12200289;19;20013;-80
2023/04/14 17:59:40;;;;;;;5.45;1.02;;;;;;;15.03;33.03;98805.41;12210524;19;20097;-80
2023/04/14 18:03:42;;;;;;;4.63;0.70;;;;;;;14.62;35.60;98798.91;12210341;19;19998;-80
2023/04/14 18:07:44;;;;;;;5.82;0.90;;;;;;;14.23;37.32;98803.59;12189651;19;20002;-80
2023/04/14 18:11:46;;;;;;;4.90;1.52;;;;;;;13.73;39.21;98808.66;12206648;19;20003;-80
2023/04/14 18:15:48;;;;;;;1.98;0.75;;;;;;;13.18;40.49;98799.84;12212928;19;20006;-81
2023/04/14 18:19:50;;;;;;;4.80;0.90;;;;;;;12.71;41.59;98809.63;12189449;19;20032;-80
2023/04/14 18:23:52;;;;;;;5.18;1.20;;;;;;;12.29;42.13;98808.28;12208339;19;20086;-80
2023/04/14 18:27:56;;;;;;;1.90;0.90;;;;;;;11.94;43.76;98812.03;12213578;19;20468;-80
2023/04/14 18:32:02;;;;;;;3.88;1.67;;;;;;;11.61;45.22;98817.13;12212372;19;20010;-80
2023/04/14 18:36:04;;;;;;;2.28;0.85;;;;;;;11.31;46.24;98823.53;12245372;19;20042;-80
2023/04/14 18:40:06;;;;;;;3.90;0.70;;;;;;;11.04;47.16;98827.44;12214474;19;20007;-80
2023/04/14 18:44:08;;;;;;;2.40;1.10;;;;;;;10.80;47.98;98821.66;12192565;19;20006;-80
2023/04/14 18:48:10;;;;;;;2.73;1.13;;;;;;;10.57;48.54;98820.25;12214702;19;20274;-81
2023/04/14 18:52:11;;;;;;;3.72;0.93;;;;;;;10.40;49.72;98823.25;12205708;19;20026;-80